Alvares Machado, Brazil
Current Conditions -  °F | °C
As of 11:00 AM on Thursday 18 Dec 2014 (Local Time) from SBDN Reporting Station
Broken Clouds Broken Clouds  
Wind Chill: 81°   Ceiling: 6000
Heat Index: 83°   Visibility: 6mi
Dew Point: 66°   Wind: 7mph
Humidity: 61%   Direction: 110°ESE
Pressure: 29.88"   Gusts: NA
Location:  22.13°S, 51.5°W
Report Text: SBDN 181300Z 11006KT 9999 SCT040 BKN060 27/19 Q1012
Loading
Personal Weather Stations






























Interactive Weather Map New forecast layout! Learn more

10-Day Weather Forecast

Advertisements
Track Severe Weather on mobile